createdAt,value
2024-02-28T00:00:06.485Z,48.90
2024-02-28T00:02:51.442Z,48.80
2024-02-28T00:05:36.668Z,44.60
2024-02-28T00:08:22.571Z,48.15
2024-02-28T00:11:07.808Z,47.03
2024-02-28T00:13:53.942Z,53.05
2024-02-28T00:16:45.909Z,54.13
2024-02-28T00:19:30.971Z,52.42
2024-02-28T00:22:16.455Z,49.65
2024-02-28T00:25:02.175Z,46.03
2024-02-28T00:27:47.395Z,51.10
2024-02-28T00:30:33.814Z,49.17
2024-02-28T00:33:18.821Z,52.67
2024-02-28T00:36:04.171Z,49.60
2024-02-28T00:38:49.329Z,54.83
2024-02-28T00:41:34.743Z,51.90
2024-02-28T00:44:19.709Z,54.10
2024-02-28T00:47:04.928Z,52.83
2024-02-28T00:49:50.017Z,52.55
2024-02-28T00:52:34.999Z,52.90
2024-02-28T00:55:21.232Z,53.58
2024-02-28T00:58:06.281Z,54.00
2024-02-28T01:00:51.513Z,50.35
2024-02-28T01:03:36.539Z,51.78
2024-02-28T01:06:21.768Z,53.77
2024-02-28T01:09:06.681Z,56.60
2024-02-28T01:11:51.825Z,56.88
2024-02-28T01:14:36.864Z,53.55
2024-02-28T01:17:22.841Z,53.30
2024-02-28T01:20:09.510Z,61.03
2024-02-28T01:22:54.575Z,58.95
2024-02-28T01:25:39.831Z,53.50
2024-02-28T01:28:24.812Z,53.33
2024-02-28T01:31:09.839Z,56.30
2024-02-28T01:33:56.727Z,57.43
2024-02-28T01:36:41.647Z,53.90
2024-02-28T01:39:26.637Z,54.75
2024-02-28T01:42:11.587Z,45.55
2024-02-28T01:44:56.903Z,50.80
2024-02-28T01:47:44.869Z,53.30
2024-02-28T01:50:29.764Z,49.83
2024-02-28T01:53:15.136Z,53.80
2024-02-28T01:56:00.058Z,54.42
2024-02-28T01:58:47.988Z,54.45
2024-02-28T02:01:33.347Z,58.80
2024-02-28T02:04:18.519Z,53.58
2024-02-28T02:07:03.435Z,50.13
2024-02-28T02:09:48.304Z,50.45
2024-02-28T02:12:34.012Z,63.80
2024-02-28T02:15:19.570Z,52.80
2024-02-28T02:18:05.006Z,51.90
2024-02-28T02:20:55.950Z,56.35
2024-02-28T02:23:42.438Z,53.20
2024-02-28T02:26:27.388Z,55.67
2024-02-28T02:29:12.239Z,47.00
2024-02-28T02:31:57.179Z,37.47
2024-02-28T02:34:42.362Z,46.17
2024-02-28T02:37:27.389Z,45.28
2024-02-28T02:40:13.349Z,57.10
2024-02-28T02:42:58.493Z,50.37
2024-02-28T02:45:44.338Z,44.92
2024-02-28T02:48:29.447Z,51.88
2024-02-28T02:51:14.587Z,51.75
2024-02-28T02:53:59.977Z,50.83
2024-02-28T02:56:45.164Z,53.47
2024-02-28T02:59:30.448Z,48.00
2024-02-28T03:02:15.480Z,52.95
2024-02-28T03:05:00.706Z,49.47
2024-02-28T03:07:45.671Z,44.83
2024-02-28T03:10:30.549Z,54.07
2024-02-28T03:13:15.785Z,47.58
2024-02-28T03:16:00.797Z,48.78
2024-02-28T03:18:45.668Z,49.03
2024-02-28T03:21:30.577Z,53.45
2024-02-28T03:24:15.888Z,43.03
2024-02-28T03:27:00.938Z,45.63
2024-02-28T03:29:45.754Z,47.67
2024-02-28T03:32:30.806Z,49.13
2024-02-28T03:35:15.965Z,47.28
2024-02-28T03:38:00.891Z,43.87
2024-02-28T03:40:45.904Z,48.53
2024-02-28T03:43:30.965Z,40.90
2024-02-28T03:46:16.306Z,46.03
2024-02-28T03:49:01.422Z,42.92
2024-02-28T03:51:46.508Z,44.00
2024-02-28T03:54:31.762Z,53.67
2024-02-28T03:57:16.679Z,37.63
2024-02-28T04:00:05.847Z,47.15
2024-02-28T04:02:50.977Z,42.70
2024-02-28T04:05:36.295Z,45.63
2024-02-28T04:08:21.429Z,47.90
2024-02-28T04:11:06.606Z,53.35
2024-02-28T04:13:51.839Z,41.05
2024-02-28T04:16:42.234Z,47.53
2024-02-28T04:19:27.141Z,50.40
2024-02-28T04:22:12.285Z,53.72
2024-02-28T04:24:57.850Z,50.00
2024-02-28T04:27:42.950Z,49.55
2024-02-28T04:30:28.030Z,49.95
2024-02-28T04:33:13.426Z,53.40
2024-02-28T04:35:58.932Z,48.50
2024-02-28T04:38:44.155Z,51.72
2024-02-28T04:41:29.423Z,54.13
2024-02-28T04:44:14.416Z,52.85
2024-02-28T04:46:59.544Z,50.10
2024-02-28T04:49:44.738Z,53.88
2024-02-28T04:52:29.609Z,56.50
2024-02-28T04:55:14.770Z,53.22
2024-02-28T04:57:59.801Z,47.78
2024-02-28T05:00:44.859Z,55.30
2024-02-28T05:03:30.040Z,60.67
2024-02-28T05:06:15.431Z,55.92
2024-02-28T05:09:00.786Z,53.67
2024-02-28T05:11:46.253Z,53.90
2024-02-28T05:14:31.504Z,57.90
2024-02-28T05:17:17.855Z,56.40
2024-02-28T05:20:02.749Z,52.40
2024-02-28T05:22:47.667Z,55.88
2024-02-28T05:25:33.143Z,49.88
2024-02-28T05:28:18.338Z,52.43
2024-02-28T05:31:21.628Z,46.53
2024-02-28T05:34:07.243Z,50.38
2024-02-28T05:36:52.498Z,53.08
2024-02-28T05:39:37.475Z,50.33
2024-02-28T05:42:25.195Z,49.50
2024-02-28T05:45:10.166Z,53.28
2024-02-28T05:47:55.452Z,55.78
2024-02-28T05:50:40.874Z,53.45
2024-02-28T05:53:27.951Z,51.53
2024-02-28T05:56:17.470Z,52.27
2024-02-28T05:59:03.577Z,57.08
2024-02-28T06:01:48.592Z,48.67
2024-02-28T06:04:34.340Z,50.47
2024-02-28T06:07:19.291Z,51.13
2024-02-28T06:10:04.714Z,50.60
2024-02-28T06:12:49.730Z,49.17
2024-02-28T06:15:35.064Z,48.70
2024-02-28T06:18:20.608Z,53.05
2024-02-28T06:21:05.727Z,52.58
2024-02-28T06:23:50.914Z,56.97
2024-02-28T06:26:35.996Z,57.15
2024-02-28T06:29:23.101Z,48.17
2024-02-28T06:32:08.614Z,45.13
2024-02-28T06:34:54.246Z,52.80
2024-02-28T06:37:39.515Z,48.33
2024-02-28T06:40:24.716Z,46.72
2024-02-28T06:43:09.542Z,45.85
2024-02-28T06:45:54.835Z,41.75
2024-02-28T06:48:39.937Z,46.55
2024-02-28T06:51:25.564Z,47.37
2024-02-28T06:54:11.464Z,44.88
2024-02-28T06:56:56.791Z,50.40
2024-02-28T06:59:41.781Z,44.63
2024-02-28T07:02:27.657Z,50.55
2024-02-28T07:05:13.601Z,48.10
2024-02-28T07:07:58.815Z,46.42
2024-02-28T07:10:45.124Z,52.60
2024-02-28T07:13:30.367Z,52.85
2024-02-28T07:16:15.336Z,55.55
2024-02-28T07:19:03.780Z,48.57
2024-02-28T07:21:48.739Z,50.25
2024-02-28T07:24:33.949Z,55.13
2024-02-28T07:27:18.969Z,56.53
2024-02-28T07:30:04.344Z,43.67
2024-02-28T07:32:51.476Z,48.33
2024-02-28T07:35:48.050Z,54.17
2024-02-28T07:38:33.742Z,54.63
2024-02-28T07:41:18.642Z,57.80
2024-02-28T07:44:04.816Z,51.90
2024-02-28T07:46:51.699Z,45.90
2024-02-28T07:49:36.590Z,49.53
2024-02-28T07:52:21.850Z,49.97
2024-02-28T07:55:07.190Z,45.58
2024-02-28T07:57:53.863Z,48.10
2024-02-28T08:00:39.249Z,50.37
2024-02-28T08:03:24.834Z,43.38
2024-02-28T08:06:09.782Z,49.15
2024-02-28T08:08:54.630Z,49.85
2024-02-28T08:11:39.612Z,49.58
2024-02-28T08:14:25.296Z,48.47
2024-02-28T08:17:10.133Z,45.10
2024-02-28T08:19:55.581Z,49.78
2024-02-28T08:22:40.429Z,50.03
2024-02-28T08:25:25.690Z,44.78
2024-02-28T08:28:10.769Z,48.63
2024-02-28T08:30:56.072Z,43.60
2024-02-28T08:33:42.488Z,40.55
2024-02-28T08:36:27.507Z,47.67
2024-02-28T08:39:12.526Z,22.75
2024-02-28T08:41:57.348Z,38.10
2024-02-28T08:44:42.852Z,46.85
2024-02-28T08:47:28.306Z,40.85
2024-02-28T08:50:13.247Z,43.47
2024-02-28T08:52:58.643Z,38.72
2024-02-28T08:55:43.628Z,32.43
2024-02-28T08:58:28.543Z,42.67
2024-02-28T09:01:16.798Z,40.00
2024-02-28T09:04:02.105Z,49.13
2024-02-28T09:06:47.368Z,46.55
2024-02-28T09:09:35.125Z,44.33
2024-02-28T09:12:20.028Z,50.47
2024-02-28T09:15:05.629Z,45.55
2024-02-28T09:17:50.766Z,48.08
2024-02-28T09:20:36.047Z,46.33
2024-02-28T09:23:22.047Z,42.90
2024-02-28T09:26:07.458Z,50.50
2024-02-28T09:28:52.622Z,49.17
2024-02-28T09:31:37.655Z,41.40
2024-02-28T09:34:23.424Z,52.20
2024-02-28T09:37:08.485Z,40.17
2024-02-28T09:39:54.262Z,46.38
2024-02-28T09:42:39.457Z,42.78
2024-02-28T09:45:25.529Z,46.38
2024-02-28T09:48:11.612Z,43.00
2024-02-28T09:51:01.004Z,42.63
2024-02-28T09:53:45.982Z,38.97
2024-02-28T09:56:31.063Z,35.35
2024-02-28T09:59:17.030Z,42.22
2024-02-28T10:02:02.362Z,38.05
2024-02-28T10:04:47.117Z,44.87
2024-02-28T10:07:32.355Z,40.03
2024-02-28T10:10:18.782Z,39.80
2024-02-28T10:13:03.733Z,40.58
2024-02-28T10:15:50.413Z,38.03
2024-02-28T10:18:35.386Z,35.33
2024-02-28T10:21:20.410Z,43.83
2024-02-28T10:24:06.112Z,39.65
2024-02-28T10:26:56.292Z,40.08
2024-02-28T10:29:42.979Z,37.47
2024-02-28T10:32:28.363Z,15.50
2024-02-28T10:35:14.392Z,29.95
2024-02-28T10:37:59.856Z,36.47
2024-02-28T10:40:44.922Z,41.65
2024-02-28T10:43:31.264Z,41.65
2024-02-28T10:46:34.255Z,40.53
2024-02-28T10:49:21.859Z,41.60
2024-02-28T10:52:07.321Z,41.38
2024-02-28T10:54:57.017Z,32.50
2024-02-28T10:57:43.284Z,38.20
2024-02-28T11:00:29.291Z,32.30
2024-02-28T11:03:16.850Z,35.58
2024-02-28T11:06:02.185Z,37.35
2024-02-28T11:08:54.369Z,35.03
2024-02-28T11:11:41.421Z,36.72
2024-02-28T11:14:27.998Z,36.17
2024-02-28T11:17:13.292Z,38.00
2024-02-28T11:19:58.322Z,34.35
2024-02-28T11:22:44.479Z,31.40
2024-02-28T11:25:29.792Z,32.85
2024-02-28T11:28:15.761Z,34.33
2024-02-28T11:31:01.030Z,34.17
2024-02-28T11:33:45.905Z,35.47
2024-02-28T11:36:31.082Z,34.75
2024-02-28T11:39:17.300Z,30.48
2024-02-28T11:42:15.248Z,33.43
2024-02-28T11:45:02.221Z,32.13
2024-02-28T11:47:48.481Z,33.28
2024-02-28T11:50:33.568Z,31.08
2024-02-28T11:53:18.784Z,19.95
2024-02-28T11:56:04.652Z,31.37
2024-02-28T11:58:53.504Z,20.15
2024-02-28T12:01:44.908Z,30.70
2024-02-28T12:04:29.956Z,15.50
2024-02-28T12:07:14.992Z,27.88
2024-02-28T12:10:00.749Z,29.07
2024-02-28T12:12:47.070Z,26.60
2024-02-28T12:15:32.743Z,31.10
2024-02-28T12:18:17.889Z,29.05
2024-02-28T12:21:03.429Z,29.08
2024-02-28T12:23:51.166Z,29.90
2024-02-28T12:26:36.549Z,23.52
2024-02-28T12:29:22.152Z,27.90
2024-02-28T12:32:08.569Z,27.15
2024-02-28T12:34:54.809Z,27.48
2024-02-28T12:37:40.179Z,25.33
2024-02-28T12:40:26.303Z,31.63
2024-02-28T12:43:12.043Z,22.50
2024-02-28T12:45:56.896Z,29.58
2024-02-28T12:48:42.207Z,26.13
2024-02-28T12:51:45.257Z,16.13
2024-02-28T12:54:30.959Z,29.83
2024-02-28T12:57:17.715Z,24.70
2024-02-28T13:00:02.946Z,23.83
2024-02-28T13:02:48.213Z,26.60
2024-02-28T13:05:33.306Z,23.87
2024-02-28T13:08:18.740Z,24.25
2024-02-28T13:11:04.451Z,27.13
2024-02-28T13:13:50.420Z,26.08
2024-02-28T13:16:35.773Z,20.63
2024-02-28T13:19:21.148Z,9.20
2024-02-28T13:22:06.369Z,28.17
2024-02-28T13:24:51.443Z,21.63
2024-02-28T13:27:36.271Z,25.00
2024-02-28T13:30:21.051Z,16.92
2024-02-28T13:33:06.219Z,20.87
2024-02-28T13:35:51.448Z,25.45
2024-02-28T13:38:37.289Z,23.33
2024-02-28T13:41:22.161Z,23.35
2024-02-28T13:44:07.205Z,21.08
2024-02-28T13:46:53.150Z,30.13
2024-02-28T13:49:38.317Z,22.48
2024-02-28T13:52:23.464Z,21.90
2024-02-28T13:55:10.270Z,21.60
2024-02-28T13:57:55.446Z,25.25
2024-02-28T14:00:41.024Z,23.63
2024-02-28T14:03:26.576Z,19.98
2024-02-28T14:06:11.728Z,21.80
2024-02-28T14:08:56.922Z,21.08
2024-02-28T14:11:41.928Z,21.27
2024-02-28T14:14:26.906Z,21.97
2024-02-28T14:17:12.017Z,18.67
2024-02-28T14:19:57.008Z,18.95
2024-02-28T14:22:44.808Z,19.88
2024-02-28T14:25:29.893Z,20.15
2024-02-28T14:28:15.030Z,19.23
2024-02-28T14:31:00.060Z,19.02
2024-02-28T14:33:46.727Z,20.58
2024-02-28T14:36:32.081Z,22.90
2024-02-28T14:39:18.671Z,23.05
2024-02-28T14:42:03.933Z,26.27
2024-02-28T14:44:48.844Z,18.77
2024-02-28T14:47:33.785Z,23.40
2024-02-28T14:50:18.957Z,21.33
2024-02-28T14:53:04.525Z,21.30
2024-02-28T14:55:49.849Z,18.70
2024-02-28T14:58:34.843Z,19.73
2024-02-28T15:01:19.876Z,20.77
2024-02-28T15:04:05.190Z,24.33
2024-02-28T15:06:50.414Z,19.15
2024-02-28T15:09:37.286Z,20.17
2024-02-28T15:12:23.610Z,22.00
2024-02-28T15:15:09.190Z,23.35
2024-02-28T15:17:54.495Z,20.30
2024-02-28T15:20:39.709Z,17.85
2024-02-28T15:23:24.784Z,20.10
2024-02-28T15:26:11.297Z,20.95
2024-02-28T15:28:56.672Z,23.50
2024-02-28T15:31:41.581Z,22.85
2024-02-28T15:34:26.544Z,20.50
2024-02-28T15:37:12.521Z,22.63
2024-02-28T15:39:57.574Z,21.95
2024-02-28T15:42:42.537Z,22.38
2024-02-28T15:45:27.931Z,19.95
2024-02-28T15:48:13.178Z,19.70
2024-02-28T15:50:58.997Z,20.23
2024-02-28T15:53:40.434Z,20.30
2024-02-28T15:56:25.713Z,22.98
2024-02-28T15:59:13.131Z,20.55
2024-02-28T16:01:58.494Z,20.17
2024-02-28T16:04:43.614Z,22.10
2024-02-28T16:07:28.728Z,24.58
2024-02-28T16:10:13.925Z,18.90
2024-02-28T16:12:59.341Z,20.88
2024-02-28T16:15:44.332Z,20.35
2024-02-28T16:18:29.665Z,19.23
2024-02-28T16:21:14.724Z,19.42
2024-02-28T16:24:00.347Z,23.38
2024-02-28T16:26:45.648Z,21.65
2024-02-28T16:29:31.477Z,23.65
2024-02-28T16:32:16.430Z,22.93
2024-02-28T16:35:02.770Z,24.77
2024-02-28T16:37:48.325Z,23.83
2024-02-28T16:40:33.559Z,23.30
2024-02-28T16:43:18.561Z,25.05
2024-02-28T16:46:03.978Z,24.37
2024-02-28T16:48:49.414Z,25.95
2024-02-28T16:51:34.993Z,21.33
2024-02-28T16:54:20.567Z,23.92
2024-02-28T16:57:05.704Z,26.25
2024-02-28T16:59:51.034Z,26.50
2024-02-28T17:02:39.845Z,21.63
2024-02-28T17:05:25.423Z,24.27
2024-02-28T17:08:12.689Z,25.10
2024-02-28T17:11:23.112Z,23.63
2024-02-28T17:14:08.044Z,25.57
2024-02-28T17:16:53.036Z,25.48
2024-02-28T17:19:39.533Z,22.63
2024-02-28T17:22:25.814Z,23.48
2024-02-28T17:25:11.532Z,27.30
2024-02-28T17:27:58.837Z,25.03
2024-02-28T17:30:44.103Z,24.48
2024-02-28T17:33:29.257Z,24.25
2024-02-28T17:36:14.815Z,28.23
2024-02-28T17:39:00.145Z,27.35
2024-02-28T17:41:46.338Z,28.17
2024-02-28T17:44:31.642Z,28.52
2024-02-28T17:47:19.477Z,26.00
2024-02-28T17:50:06.231Z,23.50
2024-02-28T17:52:51.488Z,24.73
2024-02-28T17:55:36.464Z,26.93
2024-02-28T17:58:21.650Z,26.15
2024-02-28T18:01:08.589Z,30.58
2024-02-28T18:03:53.907Z,30.50
2024-02-28T18:06:38.789Z,24.73
2024-02-28T18:09:27.647Z,26.87
2024-02-28T18:12:13.567Z,27.90
2024-02-28T18:14:58.454Z,25.52
2024-02-28T18:17:44.081Z,26.45
2024-02-28T18:20:29.765Z,24.88
2024-02-28T18:23:23.837Z,25.20
2024-02-28T18:26:13.371Z,23.52
2024-02-28T18:29:00.072Z,38.88
2024-02-28T18:31:45.245Z,43.05
2024-02-28T18:34:30.374Z,31.65
2024-02-28T18:37:16.702Z,31.93
2024-02-28T18:40:01.839Z,26.35
2024-02-28T18:42:47.444Z,23.40
2024-02-28T18:45:32.359Z,20.42
2024-02-28T18:48:17.511Z,23.30
2024-02-28T18:51:02.842Z,24.60
2024-02-28T18:53:48.204Z,24.67
2024-02-28T18:56:35.602Z,26.73
2024-02-28T18:59:20.617Z,24.33
2024-02-28T19:02:06.002Z,21.27
2024-02-28T19:04:51.143Z,21.60
2024-02-28T19:07:36.172Z,25.35
2024-02-28T19:10:21.445Z,23.65
2024-02-28T19:13:06.403Z,24.15
2024-02-28T19:15:52.829Z,27.77
2024-02-28T19:18:39.085Z,23.93
2024-02-28T19:21:24.291Z,23.13
2024-02-28T19:24:10.091Z,21.80
2024-02-28T19:26:56.587Z,26.60
2024-02-28T19:29:42.876Z,25.17
2024-02-28T19:32:28.056Z,27.87
2024-02-28T19:35:13.135Z,26.08
2024-02-28T19:37:58.467Z,29.70
2024-02-28T19:40:43.414Z,31.38
2024-02-28T19:43:29.942Z,26.00
2024-02-28T19:46:15.149Z,29.83
2024-02-28T19:49:00.186Z,28.17
2024-02-28T19:51:45.605Z,23.05
2024-02-28T19:54:30.867Z,22.95
2024-02-28T19:57:17.727Z,23.00
2024-02-28T20:00:10.439Z,24.00
2024-02-28T20:02:57.181Z,25.27
2024-02-28T20:05:42.121Z,22.10
2024-02-28T20:08:27.247Z,22.95
2024-02-28T20:11:12.629Z,22.45
2024-02-28T20:13:58.171Z,17.13
2024-02-28T20:16:44.522Z,19.25
2024-02-28T20:19:29.534Z,20.40
2024-02-28T20:22:15.075Z,19.80
2024-02-28T20:25:00.116Z,20.13
2024-02-28T20:27:46.697Z,15.33
2024-02-28T20:30:32.004Z,14.82
2024-02-28T20:33:19.164Z,12.55
2024-02-28T20:36:04.602Z,12.98
2024-02-28T20:38:51.424Z,11.15
2024-02-28T20:41:42.871Z,14.47
2024-02-28T20:44:29.941Z,10.80
2024-02-28T20:47:15.031Z,12.95
2024-02-28T20:49:59.989Z,15.02
2024-02-28T20:52:44.983Z,14.73
2024-02-28T20:55:31.348Z,14.60
2024-02-28T20:58:16.696Z,12.73
2024-02-28T21:01:02.763Z,12.15
2024-02-28T21:03:47.916Z,14.07
2024-02-28T21:06:34.614Z,16.83
2024-02-28T21:09:19.665Z,12.43
2024-02-28T21:12:06.202Z,16.30
2024-02-28T21:14:56.892Z,12.57
2024-02-28T21:17:42.121Z,12.98
2024-02-28T21:20:27.084Z,11.23
2024-02-28T21:23:12.373Z,12.50
2024-02-28T21:25:57.619Z,14.05
2024-02-28T21:28:43.022Z,14.07
2024-02-28T21:31:28.006Z,13.13
2024-02-28T21:34:12.867Z,11.05
2024-02-28T21:36:57.982Z,11.83
2024-02-28T21:39:42.970Z,15.00
2024-02-28T21:42:28.255Z,13.40
2024-02-28T21:45:13.329Z,13.52
2024-02-28T21:47:59.100Z,13.68
2024-02-28T21:50:44.437Z,12.47
2024-02-28T21:53:29.482Z,12.25
2024-02-28T21:56:14.648Z,12.63
2024-02-28T21:59:01.417Z,16.67
2024-02-28T22:01:48.070Z,11.13
2024-02-28T22:04:33.045Z,12.23
2024-02-28T22:07:18.376Z,11.13
2024-02-28T22:10:04.621Z,13.68
2024-02-28T22:12:49.597Z,12.73
2024-02-28T22:15:35.383Z,16.40
2024-02-28T22:18:20.494Z,14.30
2024-02-28T22:21:05.706Z,18.00
2024-02-28T22:23:50.741Z,14.32
2024-02-28T22:26:35.625Z,13.75
2024-02-28T22:29:23.347Z,12.48
2024-02-28T22:32:08.630Z,13.33
2024-02-28T22:34:53.661Z,14.45
2024-02-28T22:37:38.860Z,13.07
2024-02-28T22:40:24.279Z,13.30
2024-02-28T22:43:10.039Z,16.35
2024-02-28T22:45:55.056Z,13.87
2024-02-28T22:48:41.083Z,14.52
2024-02-28T22:51:26.494Z,16.73
2024-02-28T22:54:15.855Z,15.15
2024-02-28T22:57:01.325Z,14.50
2024-02-28T22:59:46.593Z,14.50
2024-02-28T23:02:31.509Z,14.27
2024-02-28T23:05:16.697Z,15.07
2024-02-28T23:08:01.735Z,12.73
2024-02-28T23:10:47.908Z,14.80
2024-02-28T23:13:33.115Z,16.03
2024-02-28T23:16:18.433Z,14.23
2024-02-28T23:19:03.646Z,14.35
2024-02-28T23:21:49.038Z,16.65
2024-02-28T23:24:34.475Z,16.98
2024-02-28T23:27:19.401Z,13.10
2024-02-28T23:30:06.992Z,16.02
2024-02-28T23:32:52.228Z,16.52
2024-02-28T23:35:38.715Z,21.67
2024-02-28T23:38:23.994Z,14.68
2024-02-28T23:41:09.193Z,14.70
2024-02-28T23:43:57.492Z,14.85
2024-02-28T23:46:43.568Z,19.67
2024-02-28T23:49:28.489Z,12.88
2024-02-28T23:52:13.827Z,15.20
2024-02-28T23:54:58.765Z,16.90
2024-02-28T23:57:43.753Z,14.07
